Time;durP1;ratioP1;P1;durP2;ratioP2;P2;SDS_P1;SDS_P2;PMS_P1;PMS_P2;Temp;Humidity;BMP_temperature;BMP_pressure;BME280_temperature;BME280_humidity;BME280_pressure;Samples;Min_cycle;Max_cycle;Signal;HPM_P1;HPM_P2
2022/04/22 00:01:44;;;;;;;64.57;44.97;;;;;;;8.15;100.00;99163.28;5074345;28;20036;-75
2022/04/22 00:04:09;;;;;;;60.33;43.70;;;;;;;8.12;100.00;99152.19;5073791;28;20472;-75
2022/04/22 00:06:35;;;;;;;70.65;47.22;;;;;;;8.11;100.00;99155.69;5074185;28;20025;-75
2022/04/22 00:09:00;;;;;;;64.78;47.17;;;;;;;8.16;100.00;99167.56;5055981;28;20035;-75
2022/04/22 00:11:32;;;;;;;58.90;43.78;;;;;;;8.15;100.00;99160.69;5073807;28;20127;-76
2022/04/22 00:14:03;;;;;;;57.63;41.45;;;;;;;8.13;100.00;99151.28;5073664;28;20029;-76
2022/04/22 00:16:30;;;;;;;61.17;42.90;;;;;;;8.15;100.00;99163.28;5073890;28;20032;-75
2022/04/22 00:18:57;;;;;;;60.45;45.03;;;;;;;8.14;100.00;99158.16;5073121;28;20024;-75
2022/04/22 00:21:22;;;;;;;59.45;43.33;;;;;;;8.06;100.00;99145.53;5073788;28;20027;-75
2022/04/22 00:23:49;;;;;;;58.00;42.10;;;;;;;8.11;100.00;99155.69;5073668;28;20020;-75
2022/04/22 00:26:16;;;;;;;61.50;46.33;;;;;;;8.07;100.00;99148.97;5073543;28;20032;-75
2022/04/22 00:28:41;;;;;;;60.92;42.55;;;;;;;8.02;100.00;99141.41;5073578;28;20545;-75
2022/04/22 00:31:06;;;;;;;56.75;39.75;;;;;;;8.00;100.00;99143.19;5073357;28;20103;-75
2022/04/22 00:33:32;;;;;;;68.95;46.15;;;;;;;8.04;100.00;99146.50;5073857;28;20027;-76
2022/04/22 00:35:58;;;;;;;77.25;47.60;;;;;;;7.93;100.00;99124.50;5073993;28;20376;-75
2022/04/22 00:38:23;;;;;;;65.13;43.45;;;;;;;7.97;100.00;99127.78;5073704;28;20028;-76
2022/04/22 00:40:48;;;;;;;59.45;42.83;;;;;;;7.95;100.00;99124.41;5073825;28;20032;-75
2022/04/22 00:43:25;;;;;;;58.58;41.55;;;;;;;7.91;100.00;99121.09;5073064;28;20027;-76
2022/04/22 00:45:51;;;;;;;59.92;41.88;;;;;;;8.05;100.00;99140.41;5073518;28;20047;-75
2022/04/22 00:48:18;;;;;;;59.65;41.72;;;;;;;7.96;100.00;99133.88;5073266;28;20028;-75
2022/04/22 00:50:45;;;;;;;57.95;41.13;;;;;;;8.04;100.00;99136.97;5073301;28;20033;-75
2022/04/22 00:53:12;;;;;;;65.85;44.63;;;;;;;8.06;100.00;99136.91;5073097;28;20103;-76
2022/04/22 00:55:39;;;;;;;61.97;44.30;;;;;;;7.98;100.00;99126.88;5073189;28;20096;-75
2022/04/22 00:58:05;;;;;;;62.58;43.75;;;;;;;8.00;100.00;99130.22;5072833;28;20020;-75
2022/04/22 01:00:31;;;;;;;61.30;43.30;;;;;;;7.98;100.00;99122.53;5073253;28;20032;-76
2022/04/22 01:02:57;;;;;;;57.78;42.67;;;;;;;7.90;100.00;99119.44;5073182;28;20070;-75
2022/04/22 01:10:54;;;;;;;57.33;41.03;;;;;;;7.88;100.00;99108.31;5072687;28;20637;-75
2022/04/22 01:13:19;;;;;;;54.05;40.10;;;;;;;7.92;100.00;99103.78;5072605;28;20111;-75
2022/04/22 01:15:46;;;;;;;54.63;41.15;;;;;;;7.91;100.00;99102.13;5073124;28;20415;-76
2022/04/22 01:18:13;;;;;;;50.22;39.55;;;;;;;7.98;100.00;99119.94;5072567;28;20025;-76
2022/04/22 01:20:39;;;;;;;52.08;39.88;;;;;;;7.99;100.00;99113.00;5072429;28;20032;-76
2022/04/22 01:23:04;;;;;;;54.85;39.20;;;;;;;7.92;100.00;99096.00;5072342;28;20037;-75
2022/04/22 01:25:30;;;;;;;54.85;40.38;;;;;;;7.97;100.00;99113.06;5072431;28;20030;-75
2022/04/22 01:27:56;;;;;;;54.67;40.47;;;;;;;7.97;100.00;99114.81;5072950;28;20107;-75
2022/04/22 01:30:23;;;;;;;53.65;39.53;;;;;;;7.97;100.00;99118.25;5072157;28;20028;-75
2022/04/22 01:32:51;;;;;;;52.42;40.47;;;;;;;7.92;100.00;99101.19;5072535;28;20028;-76
2022/04/22 01:35:18;;;;;;;53.38;38.83;;;;;;;7.98;100.00;99114.75;5072138;28;20163;-75
2022/04/22 01:37:43;;;;;;;52.65;38.33;;;;;;;7.97;100.00;99105.28;5072279;28;20081;-75
2022/04/22 01:40:10;;;;;;;58.55;41.53;;;;;;;7.95;100.00;99095.88;5072252;28;20551;-75
2022/04/22 01:42:36;;;;;;;53.88;40.90;;;;;;;8.00;100.00;99102.53;5072262;28;20102;-76
2022/04/22 01:45:03;;;;;;;56.40;41.97;;;;;;;7.96;100.00;99090.66;5071943;28;20388;-75
2022/04/22 01:47:29;;;;;;;52.92;41.10;;;;;;;7.94;100.00;99091.63;5036780;28;20107;-76
2022/04/22 01:49:55;;;;;;;51.45;39.47;;;;;;;7.93;100.00;99087.34;5072252;28;20476;-76
2022/04/22 01:52:21;;;;;;;56.00;42.10;;;;;;;8.01;100.00;99100.81;5072241;28;20024;-75
2022/04/22 01:54:46;;;;;;;57.30;42.20;;;;;;;8.03;100.00;99101.56;5072343;28;20417;-75
2022/04/22 01:57:11;;;;;;;58.70;42.67;;;;;;;8.05;100.00;99091.13;5072082;28;20448;-75
2022/04/22 01:59:37;;;;;;;60.38;45.17;;;;;;;8.00;100.00;99080.97;5072116;28;20031;-75
2022/04/22 02:02:03;;;;;;;59.30;42.00;;;;;;;7.92;100.00;99075.28;5071909;28;20028;-76
2022/04/22 02:04:28;;;;;;;58.95;42.58;;;;;;;7.90;100.00;99071.91;5072079;28;20035;-76
2022/04/22 02:06:53;;;;;;;59.35;41.92;;;;;;;7.95;100.00;99086.34;5071900;28;20025;-75
2022/04/22 02:09:19;;;;;;;58.90;44.90;;;;;;;7.93;100.00;99079.56;5071527;28;20579;-75
2022/04/22 02:11:44;;;;;;;58.13;43.15;;;;;;;7.89;100.00;99078.88;5071545;28;20059;-76
2022/04/22 02:14:09;;;;;;;57.45;42.45;;;;;;;7.86;100.00;99067.78;5071767;28;20388;-75
2022/04/22 02:16:35;;;;;;;59.47;43.30;;;;;;;7.83;100.00;99067.91;5071875;28;20035;-75
2022/04/22 02:19:01;;;;;;;58.45;42.33;;;;;;;7.81;100.00;99069.75;5071813;28;20388;-75
2022/04/22 02:21:26;;;;;;;55.28;42.28;;;;;;;7.80;100.00;99068.06;5071519;28;20433;-75
2022/04/22 02:23:51;;;;;;;59.80;43.70;;;;;;;7.84;100.00;99067.88;5071950;28;20540;-76
2022/04/22 02:26:17;;;;;;;56.08;42.28;;;;;;;7.86;100.00;99068.63;5071704;28;20036;-75
2022/04/22 02:28:42;;;;;;;61.47;44.00;;;;;;;7.86;100.00;99058.25;5071836;28;20158;-75
2022/04/22 02:31:10;;;;;;;58.10;43.55;;;;;;;7.78;100.00;99046.53;5071566;28;20024;-75
2022/04/22 02:33:40;;;;;;;58.50;43.22;;;;;;;7.89;100.00;99065.91;5071687;28;20017;-75
2022/04/22 02:36:08;;;;;;;63.87;44.30;;;;;;;7.83;100.00;99060.13;5071403;28;20170;-75
2022/04/22 02:38:34;;;;;;;66.57;45.80;;;;;;;7.88;100.00;99078.91;5071785;28;20051;-75
2022/04/22 02:46:29;;;;;;;53.33;41.75;;;;;;;7.93;100.00;99072.63;5075504;28;20043;-75
2022/04/22 02:48:59;;;;;;;52.75;41.10;;;;;;;7.83;100.00;99048.00;5075550;28;20032;-75
2022/04/22 02:51:25;;;;;;;55.05;40.45;;;;;;;7.95;100.00;99063.00;5075476;28;20017;-75
2022/04/22 02:53:52;;;;;;;54.55;40.92;;;;;;;7.96;100.00;99067.31;5075634;28;20498;-75
2022/04/22 02:56:19;;;;;;;58.38;42.53;;;;;;;8.00;100.00;99062.81;5075298;28;20028;-75
2022/04/22 02:58:44;;;;;;;51.17;40.03;;;;;;;7.93;100.00;99053.63;5075321;28;20125;-75
2022/04/22 03:01:10;;;;;;;54.08;39.42;;;;;;;7.99;100.00;99056.78;5075376;28;20486;-75
2022/04/22 03:03:35;;;;;;;51.65;38.00;;;;;;;7.93;100.00;99043.28;5075600;28;20064;-76
2022/04/22 03:06:02;;;;;;;53.42;39.30;;;;;;;8.00;100.00;99055.84;5075419;28;20025;-76
2022/04/22 03:08:27;;;;;;;50.90;38.05;;;;;;;7.99;100.00;99054.19;5075162;28;20036;-75
2022/04/22 03:10:53;;;;;;;51.35;37.22;;;;;;;8.01;100.00;99067.09;5075353;28;20517;-76
2022/04/22 03:13:18;;;;;;;51.05;38.88;;;;;;;7.95;100.00;99054.41;5074742;28;20024;-75
2022/04/22 03:15:44;;;;;;;54.15;39.80;;;;;;;7.99;100.00;99063.72;5075247;28;20040;-75
2022/04/22 03:18:11;;;;;;;54.25;40.05;;;;;;;7.92;100.00;99051.94;5074815;28;20483;-75
2022/04/22 03:20:37;;;;;;;51.47;38.47;;;;;;;7.91;100.00;99052.84;5075099;28;20032;-76
2022/04/22 03:23:02;;;;;;;49.00;38.22;;;;;;;7.92;100.00;99052.81;5075001;28;20032;-76
2022/04/22 03:25:28;;;;;;;53.97;38.30;;;;;;;7.96;100.00;99059.53;5074549;28;20028;-76
2022/04/22 03:27:53;;;;;;;53.33;39.35;;;;;;;7.97;100.00;99052.59;5074752;28;20099;-76
2022/04/22 03:30:19;;;;;;;52.83;39.70;;;;;;;7.92;100.00;99042.44;5074780;28;20020;-76
2022/04/22 03:32:44;;;;;;;53.03;38.95;;;;;;;7.97;100.00;99042.22;5074913;28;20032;-76
2022/04/22 03:35:10;;;;;;;57.10;39.90;;;;;;;8.04;100.00;99051.38;5074610;28;20024;-75
2022/04/22 03:37:35;;;;;;;55.63;39.42;;;;;;;8.04;100.00;99051.38;5074746;28;20028;-76
2022/04/22 03:40:02;;;;;;;49.50;38.05;;;;;;;8.03;100.00;99047.13;5074658;28;20032;-75
2022/04/22 03:42:29;;;;;;;54.92;39.45;;;;;;;8.00;100.00;99040.31;5074291;28;20020;-75
2022/04/22 03:44:56;;;;;;;49.50;39.80;;;;;;;8.02;100.00;99042.84;5074599;28;20483;-75
2022/04/22 03:47:22;;;;;;;57.92;40.40;;;;;;;8.04;100.00;99040.16;5074468;28;20025;-75
2022/04/22 03:49:48;;;;;;;50.28;39.55;;;;;;;8.02;100.00;99036.81;5074562;28;20035;-75
2022/04/22 03:52:13;;;;;;;58.20;42.20;;;;;;;8.06;100.00;99049.56;5074260;28;20028;-75
2022/04/22 03:54:38;;;;;;;59.45;42.45;;;;;;;8.03;100.00;99030.72;5074280;28;20365;-75
2022/04/22 03:59:48;;;;;;;59.38;41.88;;;;;;;8.08;100.00;99028.75;5074312;28;20039;-76
2022/04/22 04:02:14;;;;;;;59.00;42.33;;;;;;;8.12;100.00;99051.88;5074019;28;20024;-76
2022/04/22 04:04:39;;;;;;;53.92;40.25;;;;;;;8.08;100.00;99036.53;5074160;28;20385;-75
2022/04/22 04:07:04;;;;;;;56.05;41.05;;;;;;;8.10;100.00;99039.91;5074418;28;20033;-75
2022/04/22 04:17:41;;;;;;;60.53;40.60;;;;;;;8.17;100.00;99055.09;5074078;28;20035;-75
2022/04/22 04:25:35;;;;;;;55.58;41.25;;;;;;;8.11;100.00;99034.63;5073529;28;20063;-76
2022/04/22 04:28:02;;;;;;;53.42;40.38;;;;;;;8.19;100.00;99042.06;5073771;28;20060;-75
2022/04/22 04:30:27;;;;;;;54.60;39.10;;;;;;;8.10;100.00;99024.34;5073379;28;20065;-75
2022/04/22 04:32:53;;;;;;;57.83;41.70;;;;;;;8.17;100.00;99033.50;5073818;28;20020;-75
2022/04/22 04:35:18;;;;;;;59.00;41.10;;;;;;;8.18;100.00;99036.03;5073519;28;20063;-75
2022/04/22 04:37:44;;;;;;;55.97;40.97;;;;;;;8.16;100.00;99037.84;5073679;28;20040;-75
2022/04/22 04:40:10;;;;;;;62.30;43.20;;;;;;;8.19;100.00;99037.72;5073644;28;20052;-75
2022/04/22 04:42:35;;;;;;;60.88;41.78;;;;;;;8.18;100.00;99032.59;5073245;28;20051;-75
2022/04/22 04:45:01;;;;;;;63.58;42.50;;;;;;;8.19;100.00;99029.94;5073218;28;20021;-76
2022/04/22 04:47:26;;;;;;;63.38;43.20;;;;;;;8.25;100.00;99033.97;5073315;28;20468;-75
2022/04/22 04:49:52;;;;;;;63.10;43.80;;;;;;;8.24;100.00;99020.19;5073431;28;20107;-76
2022/04/22 04:52:18;;;;;;;60.38;42.63;;;;;;;8.31;100.00;99020.75;5073106;28;20067;-75
2022/04/22 04:54:43;;;;;;;57.45;41.47;;;;;;;8.44;100.00;99034.84;5073278;28;20035;-76
2022/04/22 04:57:08;;;;;;;60.13;42.63;;;;;;;8.58;100.00;99039.38;5073068;28;20059;-76
2022/04/22 04:59:34;;;;;;;65.20;43.22;;;;;;;8.57;100.00;99032.50;5072838;28;20056;-75
2022/04/22 05:01:59;;;;;;;60.70;41.65;;;;;;;8.61;100.00;99028.00;5073293;28;20069;-76
2022/04/22 05:04:25;;;;;;;63.10;42.30;;;;;;;8.67;100.00;99033.72;5072680;28;20089;-81
2022/04/22 05:06:50;;;;;;;61.10;42.38;;;;;;;8.66;100.00;99032.03;5072435;28;20039;-81
2022/04/22 05:09:16;;;;;;;67.53;46.50;;;;;;;8.66;100.00;99026.84;5073060;28;20036;-81
2022/04/22 05:11:41;;;;;;;69.07;47.53;;;;;;;8.65;100.00;99027.78;5072654;28;20036;-81
2022/04/22 05:14:07;;;;;;;69.43;47.95;;;;;;;8.71;100.00;99030.06;5072580;28;20024;-81
2022/04/22 05:16:33;;;;;;;71.70;48.72;;;;;;;8.72;100.00;99020.50;5072722;28;20060;-81
2022/04/22 05:18:58;;;;;;;70.85;48.65;;;;;;;8.73;100.00;99025.66;5072842;28;20040;-81
2022/04/22 05:21:24;;;;;;;70.70;47.50;;;;;;;8.75;100.00;99028.16;5029915;28;20037;-81
2022/04/22 05:23:49;;;;;;;79.65;51.05;;;;;;;8.73;100.00;99022.22;5030340;28;20040;-81
2022/04/22 05:26:14;;;;;;;71.90;50.70;;;;;;;8.76;100.00;99029.84;5030041;28;20049;-82
2022/04/22 05:28:40;;;;;;;65.50;46.05;;;;;;;8.73;100.00;99024.81;5030133;28;20040;-81
2022/04/22 05:33:51;;;;;;;66.35;45.75;;;;;;;8.83;100.00;99038.16;5030431;28;20043;-82
2022/04/22 05:36:18;;;;;;;60.28;43.60;;;;;;;8.84;100.00;99039.84;5029979;28;20048;-81
2022/04/22 05:38:43;;;;;;;65.45;42.35;;;;;;;8.85;100.00;99031.13;5013545;28;20031;-82
2022/04/22 05:41:08;;;;;;;56.60;40.17;;;;;;;8.77;100.00;99020.31;5029945;28;20045;-81
2022/04/22 05:43:34;;;;;;;67.53;43.22;;;;;;;8.85;100.00;99037.19;5013114;28;20025;-81
2022/04/22 05:45:59;;;;;;;55.47;39.22;;;;;;;8.86;100.00;99035.44;5029830;28;20145;-81
2022/04/22 05:48:26;;;;;;;54.00;38.95;;;;;;;8.88;100.00;99034.41;5013082;28;20022;-75
2022/04/22 05:50:52;;;;;;;50.15;37.83;;;;;;;8.95;100.00;99035.81;5029836;28;20033;-79
2022/04/22 05:53:17;;;;;;;50.58;36.45;;;;;;;8.95;100.00;99038.41;5048669;28;20096;-79
2022/04/22 05:55:43;;;;;;;51.42;37.92;;;;;;;8.87;100.00;99018.94;5072019;28;20066;-80
2022/04/22 05:58:09;;;;;;;48.20;36.35;;;;;;;8.90;100.00;99013.59;5072260;28;20099;-79
2022/04/22 06:00:34;;;;;;;50.22;36.47;;;;;;;9.05;100.00;99033.59;5072180;28;20090;-79
2022/04/22 06:03:00;;;;;;;52.22;34.75;;;;;;;9.10;100.00;99029.03;5054533;28;20028;-79
2022/04/22 06:05:26;;;;;;;46.28;32.92;;;;;;;9.18;100.00;99034.63;5054500;28;20522;-76
2022/04/22 06:10:37;;;;;;;44.47;33.92;;;;;;;9.26;100.00;99029.06;5071596;28;20518;-75
2022/04/22 06:13:04;;;;;;;45.20;34.45;;;;;;;9.35;100.00;99038.16;5071810;28;20472;-76
2022/04/22 06:15:30;;;;;;;50.03;36.10;;;;;;;9.27;100.00;99014.31;5071774;28;20032;-75
2022/04/22 06:17:56;;;;;;;43.10;33.45;;;;;;;9.24;100.00;99004.94;5070835;28;20035;-75
2022/04/22 06:20:22;;;;;;;43.15;34.78;;;;;;;9.32;100.00;99012.34;5071676;28;20495;-75
2022/04/22 06:22:47;;;;;;;43.90;33.95;;;;;;;9.35;100.00;99022.56;5071714;28;20021;-76
2022/04/22 06:25:13;;;;;;;39.05;31.85;;;;;;;9.37;100.00;99023.31;5071872;28;20021;-75
2022/04/22 06:27:41;;;;;;;43.97;35.22;;;;;;;9.34;100.00;99024.31;5071727;28;20107;-75
2022/04/22 06:30:15;;;;;;;48.38;37.00;;;;;;;9.33;100.00;99022.63;5071862;28;20025;-76
2022/04/22 06:32:42;;;;;;;57.03;39.60;;;;;;;9.40;100.00;99029.22;5071594;28;20039;-75
2022/04/22 06:35:09;;;;;;;57.03;42.35;;;;;;;9.41;100.00;99020.47;5071611;28;20115;-75
2022/04/22 06:37:37;;;;;;;49.00;39.95;;;;;;;9.51;100.00;99031.25;5071302;28;20025;-75
2022/04/22 06:45:46;;;;;;;40.95;32.92;;;;;;;9.61;100.00;99026.41;5071414;28;20032;-75
2022/04/22 06:48:18;;;;;;;44.30;34.70;;;;;;;9.66;100.00;99022.66;5053797;28;20592;-75
2022/04/22 06:50:47;;;;;;;42.03;34.40;;;;;;;9.60;100.00;99022.94;5071378;28;20145;-75
2022/04/22 06:53:14;;;;;;;42.72;34.05;;;;;;;9.62;100.00;99025.50;5071618;28;20093;-75
2022/04/22 06:55:40;;;;;;;43.45;34.55;;;;;;;9.63;100.00;99029.75;5071193;28;20032;-75
2022/04/22 06:58:11;;;;;;;45.53;34.95;;;;;;;9.74;100.00;99035.25;5071480;28;20028;-76
2022/04/22 07:00:37;;;;;;;46.10;33.72;;;;;;;9.89;100.00;99034.41;5070893;28;20414;-75
2022/04/22 07:03:02;;;;;;;44.35;34.53;;;;;;;9.94;100.00;99035.03;5071877;28;20036;-76
2022/04/22 07:05:28;;;;;;;42.42;34.28;;;;;;;10.03;100.00;99038.03;5071075;28;20461;-76
2022/04/22 07:07:53;;;;;;;46.20;34.05;;;;;;;10.06;100.00;99035.25;5071457;28;20028;-75
2022/04/22 07:10:20;;;;;;;43.60;33.78;;;;;;;10.18;100.00;99034.59;5071404;28;20102;-75
2022/04/22 07:12:45;;;;;;;43.50;34.10;;;;;;;10.20;100.00;99024.97;5070957;28;20020;-75
2022/04/22 07:15:11;;;;;;;39.17;32.20;;;;;;;10.07;100.00;98988.38;5071279;28;20055;-75
2022/04/22 07:17:38;;;;;;;41.15;32.63;;;;;;;10.30;100.00;99013.13;5071160;28;20036;-75
2022/04/22 07:20:09;;;;;;;41.70;32.13;;;;;;;10.39;100.00;99019.59;5071439;28;20031;-75
2022/04/22 07:22:35;;;;;;;42.10;33.53;;;;;;;10.38;100.00;99015.31;5070981;28;20475;-75
2022/04/22 07:25:01;;;;;;;44.17;35.10;;;;;;;10.34;100.00;99016.41;5071151;28;20028;-75
2022/04/22 07:27:28;;;;;;;40.78;33.50;;;;;;;10.41;100.00;99026.41;5070765;28;20023;-75
2022/04/22 07:29:58;;;;;;;38.10;32.40;;;;;;;10.56;100.00;99022.09;5074090;28;20130;-76
2022/04/22 07:32:25;;;;;;;41.45;32.15;;;;;;;10.60;100.00;99014.94;5074608;28;20032;-76
2022/04/22 07:34:51;;;;;;;41.13;32.95;;;;;;;10.64;100.00;99016.44;5074643;28;20024;-75
2022/04/22 07:37:17;;;;;;;53.97;38.90;;;;;;;10.79;100.00;99032.94;5074703;28;20544;-75
2022/04/22 07:39:42;;;;;;;45.38;32.40;;;;;;;10.80;100.00;99037.25;5074464;28;20039;-75
2022/04/22 07:42:12;;;;;;;38.33;30.30;;;;;;;10.79;100.00;99032.94;5074467;28;20052;-75
2022/04/22 07:47:22;;;;;;;40.05;30.90;;;;;;;11.15;100.00;99036.03;5074476;28;20040;-75
2022/04/22 07:49:50;;;;;;;41.58;32.42;;;;;;;11.27;100.00;99018.00;5074074;28;20033;-75
2022/04/22 07:52:16;;;;;;;39.95;32.63;;;;;;;11.38;100.00;99036.47;5074473;28;20021;-75
2022/04/22 07:54:41;;;;;;;38.42;31.90;;;;;;;11.36;100.00;99026.09;5074153;28;20399;-75
2022/04/22 07:57:07;;;;;;;45.10;35.35;;;;;;;11.41;100.00;99034.50;5074612;28;20384;-76
2022/04/22 07:59:32;;;;;;;42.10;34.20;;;;;;;11.68;100.00;99032.00;5074058;28;20464;-75
2022/04/22 08:01:59;;;;;;;43.75;35.58;;;;;;;11.89;100.00;99035.09;5074332;28;20024;-76
2022/04/22 08:04:25;;;;;;;54.55;39.72;;;;;;;12.02;100.00;99037.78;5074126;28;20055;-76
2022/04/22 08:06:51;;;;;;;52.75;41.10;;;;;;;12.11;100.00;99029.38;5074013;28;20718;-75
2022/04/22 08:09:16;;;;;;;51.17;39.90;;;;;;;12.15;100.00;99045.69;5074012;28;20032;-75
2022/04/22 08:11:43;;;;;;;52.72;37.13;;;;;;;12.15;100.00;99043.91;5074047;28;20083;-75
2022/04/22 08:14:12;;;;;;;43.03;34.33;;;;;;;12.14;100.00;99031.81;5073952;28;20028;-75
2022/04/22 08:16:41;;;;;;;43.00;34.65;;;;;;;12.16;100.00;99035.13;5073741;28;20356;-76
2022/04/22 08:19:06;;;;;;;40.95;31.67;;;;;;;12.44;100.00;99028.19;5073818;28;20059;-75
2022/04/22 08:21:34;;;;;;;33.38;25.23;;;;;;;12.56;99.63;99043.06;5073637;28;20127;-76
2022/04/22 08:24:00;;;;;;;32.90;25.27;;;;;;;12.64;98.66;99053.00;5073941;28;20032;-75
2022/04/22 08:26:26;;;;;;;31.45;24.00;;;;;;;12.49;97.96;99047.00;5073885;28;20032;-75
2022/04/22 08:28:51;;;;;;;42.42;32.00;;;;;;;12.28;98.79;99038.75;5073588;28;20028;-75
2022/04/22 08:31:17;;;;;;;34.90;25.83;;;;;;;12.08;100.00;99055.66;5073721;28;20116;-76
2022/04/22 08:33:45;;;;;;;38.47;28.00;;;;;;;11.99;100.00;99058.84;5073512;28;20036;-76
2022/04/22 08:36:11;;;;;;;33.85;26.05;;;;;;;11.79;100.00;99046.97;5073409;28;20040;-75
2022/04/22 08:38:37;;;;;;;34.30;26.48;;;;;;;11.92;100.00;99049.72;5073546;28;20021;-75
2022/04/22 08:41:03;;;;;;;32.55;26.52;;;;;;;11.87;100.00;99047.38;5073436;28;20036;-76
2022/04/22 08:43:30;;;;;;;32.25;26.85;;;;;;;12.10;100.00;99063.41;5087682;28;20031;-76
2022/04/22 08:45:55;;;;;;;38.30;31.25;;;;;;;12.61;99.20;99055.84;5088110;28;20031;-76
2022/04/22 08:51:08;;;;;;;28.13;22.48;;;;;;;13.71;90.70;99075.50;5073543;28;20039;-76
2022/04/22 08:53:34;;;;;;;39.75;26.48;;;;;;;13.65;89.93;99075.06;5073178;28;20028;-76
2022/04/22 08:56:02;;;;;;;32.13;23.77;;;;;;;13.43;90.74;99079.16;5073290;28;20090;-76
2022/04/22 08:58:29;;;;;;;26.40;22.23;;;;;;;13.34;91.68;99089.41;5073203;28;20099;-75
2022/04/22 09:00:57;;;;;;;37.58;29.10;;;;;;;13.13;90.59;99068.94;5073034;28;20029;-76
2022/04/22 09:03:26;;;;;;;46.70;35.72;;;;;;;12.88;92.80;99079.31;5055300;28;20106;-75
2022/04/22 09:05:51;;;;;;;26.83;23.60;;;;;;;12.99;93.91;99067.22;5072893;28;20028;-76
2022/04/22 09:08:18;;;;;;;28.25;22.73;;;;;;;13.18;92.45;99061.63;5073413;28;20085;-76
2022/04/22 09:10:44;;;;;;;25.42;21.67;;;;;;;13.30;91.03;99064.38;5072798;28;20072;-76
2022/04/22 09:13:23;;;;;;;29.38;22.45;;;;;;;13.55;90.69;99056.56;5073017;28;20495;-75
2022/04/22 09:15:48;;;;;;;25.70;18.70;;;;;;;13.66;89.66;99058.44;5072909;28;20059;-76
2022/04/22 09:18:14;;;;;;;18.98;16.92;;;;;;;13.65;88.50;99064.59;5072693;28;20464;-76
2022/04/22 09:20:40;;;;;;;22.05;18.13;;;;;;;13.37;89.04;99061.25;5072653;28;20499;-76
2022/04/22 09:23:32;;;;;;;19.23;17.13;;;;;;;12.95;90.35;99060.53;5072762;28;20020;-76
2022/04/22 09:25:58;;;;;;;19.60;16.63;;;;;;;12.58;92.13;99058.63;5076783;28;20021;-76
2022/04/22 09:28:24;;;;;;;26.23;20.50;;;;;;;12.41;93.19;99059.72;5090185;28;20024;-76
2022/04/22 09:31:04;;;;;;;22.10;17.80;;;;;;;12.19;93.28;99049.78;5072421;28;20033;-76
2022/04/22 09:33:47;;;;;;;18.30;16.33;;;;;;;12.46;94.02;99065.47;5080874;28;20035;-76
2022/04/22 09:42:43;;;;;;;21.23;18.80;;;;;;;12.09;94.95;99051.28;5084483;28;20116;-77
2022/04/22 09:45:08;;;;;;;22.30;19.88;;;;;;;11.93;96.35;99043.59;4971047;28;20043;-76
2022/04/22 09:47:36;;;;;;;21.75;19.25;;;;;;;12.43;95.69;99045.63;4970975;28;20100;-75
2022/04/22 09:50:11;;;;;;;26.38;21.95;;;;;;;13.01;93.87;99051.44;4971076;28;20045;-76
2022/04/22 09:52:39;;;;;;;22.00;19.02;;;;;;;13.40;90.04;99052.34;4970676;28;20094;-76
2022/04/22 09:55:09;;;;;;;22.55;18.27;;;;;;;13.62;89.17;99054.38;4971002;28;20403;-76
2022/04/22 09:57:58;;;;;;;22.37;17.97;;;;;;;13.43;87.63;99058.22;4970807;28;20027;-75
2022/04/22 10:00:25;;;;;;;28.38;21.83;;;;;;;13.12;88.03;99042.91;4989365;28;20026;-76
2022/04/22 10:02:52;;;;;;;17.20;13.30;;;;;;;12.93;88.94;99049.31;4990142;28;20043;-75
2022/04/22 10:05:26;;;;;;;36.28;24.30;;;;;;;12.93;88.95;99038.03;4941713;28;20035;-76
2022/04/22 10:07:53;;;;;;;29.58;21.50;;;;;;;12.97;89.04;99042.97;4989986;28;20125;-76
2022/04/22 10:10:23;;;;;;;16.30;14.57;;;;;;;12.94;89.98;99045.78;4990105;28;20054;-75
2022/04/22 10:12:49;;;;;;;31.70;20.37;;;;;;;13.17;90.10;99038.19;4990054;28;20034;-75
2022/04/22 10:15:19;;;;;;;27.30;18.67;;;;;;;13.21;89.30;99045.72;4973698;28;20045;-75
2022/04/22 10:17:46;;;;;;;19.17;16.88;;;;;;;13.25;88.60;99048.19;4989976;28;20413;-75
2022/04/22 10:20:12;;;;;;;18.73;16.75;;;;;;;13.22;87.92;99038.72;4990218;28;20525;-75
2022/04/22 10:22:38;;;;;;;28.65;21.00;;;;;;;13.30;88.17;99035.63;5080015;28;20115;-76
2022/04/22 10:25:07;;;;;;;28.90;20.90;;;;;;;13.22;87.90;99023.88;5092180;28;20020;-75
2022/04/22 10:27:34;;;;;;;24.23;18.42;;;;;;;13.46;87.68;99031.84;5092116;28;20066;-75
2022/04/22 10:30:00;;;;;;;30.45;22.02;;;;;;;13.64;87.67;99024.50;5091842;28;20062;-75
2022/04/22 10:32:27;;;;;;;18.02;15.65;;;;;;;13.56;86.24;99023.38;5090197;28;20426;-75
2022/04/22 10:34:57;;;;;;;13.82;12.43;;;;;;;13.45;85.79;99011.88;5071419;28;20035;-75
2022/04/22 10:37:25;;;;;;;12.48;11.23;;;;;;;13.47;85.68;99030.91;5071846;28;20037;-75
2022/04/22 10:39:52;;;;;;;13.43;12.13;;;;;;;13.21;86.68;99008.28;5071588;28;20368;-75
2022/04/22 10:42:17;;;;;;;18.45;15.73;;;;;;;13.15;88.13;99001.69;5071708;28;20032;-75
2022/04/22 10:47:40;;;;;;;19.30;17.05;;;;;;;13.29;88.90;99018.25;5071750;28;20043;-75
2022/04/22 10:50:26;;;;;;;14.60;13.10;;;;;;;13.17;89.32;99006.81;5071636;28;20112;-76
2022/04/22 10:53:01;;;;;;;14.60;13.10;;;;;;;13.02;88.79;99015.66;5071418;28;20109;-75
2022/04/22 10:55:28;;;;;;;16.35;14.02;;;;;;;13.02;89.79;99006.09;5071459;28;20151;-75
2022/04/22 10:58:12;;;;;;;17.73;13.85;;;;;;;13.02;89.14;99013.06;5071162;28;20107;-75
2022/04/22 11:00:41;;;;;;;16.08;14.27;;;;;;;12.98;89.09;98996.78;5071378;28;20032;-76
2022/04/22 11:03:34;;;;;;;15.73;14.02;;;;;;;13.33;89.13;99011.88;5071531;28;20395;-76
2022/04/22 11:06:01;;;;;;;24.88;17.30;;;;;;;13.39;87.96;99004.44;4973887;28;20035;-75
2022/04/22 11:08:32;;;;;;;17.17;13.45;;;;;;;13.54;87.81;99001.72;4974193;28;20055;-75
2022/04/22 11:11:01;;;;;;;18.23;15.38;;;;;;;13.80;87.37;99003.34;4973492;28;20050;-75
2022/04/22 11:13:32;;;;;;;24.13;17.83;;;;;;;13.84;87.10;98996.97;4973954;28;20034;-75
2022/04/22 11:16:14;;;;;;;17.48;15.52;;;;;;;14.03;85.78;99008.75;4973791;28;20066;-75
2022/04/22 11:18:43;;;;;;;18.92;16.73;;;;;;;13.87;85.69;99009.84;4973656;28;20098;-75
2022/04/22 11:21:19;;;;;;;18.05;14.07;;;;;;;13.85;84.69;99003.03;4973833;28;20097;-75
2022/04/22 11:23:45;;;;;;;17.83;14.23;;;;;;;13.82;84.14;99006.72;4973444;28;20043;-75
2022/04/22 11:26:16;;;;;;;12.50;11.20;;;;;;;13.85;84.34;99016.94;4973722;28;20082;-75
2022/04/22 11:28:44;;;;;;;15.27;13.68;;;;;;;13.86;83.95;99020.41;4973484;28;20542;-75
2022/04/22 11:31:12;;;;;;;20.35;16.15;;;;;;;13.79;84.71;99003.47;4973754;28;20415;-75
2022/04/22 11:33:40;;;;;;;16.73;14.52;;;;;;;13.78;85.04;99009.63;4984892;28;20046;-78
2022/04/22 11:36:07;;;;;;;17.48;14.52;;;;;;;13.46;85.44;99010.09;4993042;28;20038;-78
2022/04/22 11:38:33;;;;;;;24.17;21.27;;;;;;;13.16;86.55;99015.59;4993112;28;20038;-79
2022/04/22 11:40:58;;;;;;;15.95;14.23;;;;;;;13.12;87.53;99006.28;4976409;28;20080;-78
2022/04/22 11:43:27;;;;;;;21.35;18.38;;;;;;;13.10;88.45;99016.84;5055309;28;20048;-78
2022/04/22 11:45:53;;;;;;;15.80;14.20;;;;;;;13.04;89.16;99013.81;5074206;28;20073;-77
2022/04/22 11:48:23;;;;;;;27.80;23.33;;;;;;;12.95;89.40;99003.03;5074442;28;20489;-75
2022/04/22 11:50:48;;;;;;;25.70;21.63;;;;;;;12.91;89.56;99013.78;5074446;28;20233;-76
2022/04/22 11:53:16;;;;;;;16.38;14.77;;;;;;;12.88;89.12;99019.22;5074494;28;20017;-76
2022/04/22 11:55:43;;;;;;;19.25;16.08;;;;;;;12.83;88.88;99014.28;5074228;28;20033;-75
2022/04/22 11:58:12;;;;;;;15.68;13.80;;;;;;;12.75;89.70;99029.63;5074370;28;20480;-75
2022/04/22 12:06:12;;;;;;;27.88;23.73;;;;;;;12.38;89.24;99005.06;5074199;28;20035;-75
2022/04/22 12:09:00;;;;;;;15.88;14.38;;;;;;;12.55;89.83;99025.69;5064208;28;20032;-75
2022/04/22 12:11:26;;;;;;;16.35;13.50;;;;;;;12.69;89.26;99009.97;5070079;28;20054;-75
2022/04/22 12:13:53;;;;;;;26.55;21.33;;;;;;;12.68;89.80;99023.13;5073750;28;20486;-75
2022/04/22 12:16:23;;;;;;;18.45;16.63;;;;;;;12.40;93.78;99022.31;5072995;28;20460;-76